createdAt,value
2023-04-10T00:00:39.052Z,99838.50
2023-04-10T00:05:56.951Z,99835.02
2023-04-10T00:11:01.351Z,99833.48
2023-04-10T00:16:07.201Z,99831.24
2023-04-10T00:21:11.674Z,99827.77
2023-04-10T00:26:16.163Z,99831.21
2023-04-10T00:31:20.832Z,99824.65
2023-04-10T00:36:25.536Z,99815.88
2023-04-10T00:41:30.267Z,99807.66
2023-04-10T00:46:35.636Z,99814.83
2023-04-10T00:51:41.676Z,99822.28
2023-04-10T00:56:47.146Z,99832.15
2023-04-10T01:01:51.725Z,99832.41
2023-04-10T01:07:04.246Z,99835.55
2023-04-10T01:12:25.750Z,99828.05
2023-04-10T01:17:35.808Z,99826.20
2023-04-10T01:22:58.813Z,99822.58
2023-04-10T01:28:14.243Z,99820.17
2023-04-10T01:33:21.843Z,99818.55
2023-04-10T01:38:29.826Z,99813.33
2023-04-10T01:43:35.931Z,99812.42
2023-04-10T01:48:40.968Z,99809.04
2023-04-10T01:53:46.199Z,99814.53
2023-04-10T01:58:50.938Z,99814.05
2023-04-10T02:03:56.015Z,99808.32
2023-04-10T02:09:10.848Z,99815.08
2023-04-10T02:14:20.697Z,99812.02
2023-04-10T02:19:27.616Z,99816.36
2023-04-10T02:24:33.683Z,99815.10
2023-04-10T02:29:38.224Z,99814.70
2023-04-10T02:34:43.471Z,99815.89
2023-04-10T02:39:47.956Z,99813.84
2023-04-10T02:44:52.117Z,99806.81
2023-04-10T02:49:57.053Z,99815.75
2023-04-10T02:55:01.141Z,99810.25
2023-04-10T03:00:07.850Z,99808.17
2023-04-10T03:05:12.357Z,99807.82
2023-04-10T03:10:17.315Z,99813.39
2023-04-10T03:15:22.338Z,99809.02
2023-04-10T03:20:27.464Z,99806.61
2023-04-10T03:25:31.959Z,99806.89
2023-04-10T03:30:36.748Z,99806.80
2023-04-10T03:35:40.877Z,99806.36
2023-04-10T03:40:45.233Z,99797.52
2023-04-10T03:45:49.547Z,99794.95
2023-04-10T03:50:53.923Z,99797.27
2023-04-10T03:55:58.315Z,99805.13
2023-04-10T04:01:02.958Z,99811.70
2023-04-10T04:06:08.632Z,99813.17
2023-04-10T04:11:12.473Z,99805.27
2023-04-10T04:16:17.332Z,99806.96
2023-04-10T04:21:21.827Z,99806.67
2023-04-10T04:26:26.632Z,99813.67
2023-04-10T04:31:32.049Z,99811.82
2023-04-10T04:36:36.297Z,99817.31
2023-04-10T04:41:40.375Z,99821.50
2023-04-10T04:46:44.829Z,99815.91
2023-04-10T04:51:49.604Z,99828.08
2023-04-10T04:56:54.011Z,99831.40
2023-04-10T05:01:58.889Z,99833.55
2023-04-10T05:07:03.223Z,99843.45
2023-04-10T05:12:07.662Z,99846.25
2023-04-10T05:17:11.614Z,99850.67
2023-04-10T05:22:16.908Z,99841.21
2023-04-10T05:27:23.419Z,99851.53
2023-04-10T05:32:27.526Z,99857.45
2023-04-10T05:37:31.393Z,99860.48
2023-04-10T05:42:35.623Z,99860.33
2023-04-10T05:47:39.822Z,99863.00
2023-04-10T05:52:43.748Z,99858.07
2023-04-10T05:57:47.770Z,99857.42
2023-04-10T06:02:51.844Z,99855.52
2023-04-10T06:07:58.162Z,99859.31
2023-04-10T06:13:02.918Z,99854.96
2023-04-10T06:18:07.178Z,99852.41
2023-04-10T06:23:12.709Z,99852.39
2023-04-10T06:28:16.789Z,99853.98
2023-04-10T06:33:21.461Z,99860.38
2023-04-10T06:38:25.797Z,99863.56
2023-04-10T06:43:31.351Z,99867.04
2023-04-10T06:48:35.797Z,99860.15
2023-04-10T06:53:39.976Z,99859.85
2023-04-10T06:58:44.138Z,99859.17
2023-04-10T07:03:49.096Z,99867.10
2023-04-10T07:08:53.899Z,99870.63
2023-04-10T07:13:58.577Z,99875.27
2023-04-10T07:19:03.269Z,99874.91
2023-04-10T07:24:07.828Z,99876.35
2023-04-10T07:29:11.809Z,99871.53
2023-04-10T07:34:16.039Z,99873.84
2023-04-10T07:39:20.638Z,99865.99
2023-04-10T07:44:28.236Z,99864.51
2023-04-10T07:49:32.575Z,99862.55
2023-04-10T07:54:37.243Z,99866.58
2023-04-10T07:59:41.378Z,99872.52
2023-04-10T08:04:45.528Z,99868.85
2023-04-10T08:09:49.910Z,99869.58
2023-04-10T08:14:54.534Z,99872.06
2023-04-10T08:19:58.684Z,99872.30
2023-04-10T08:25:02.936Z,99877.98
2023-04-10T08:30:09.517Z,99873.16
2023-04-10T08:35:13.959Z,99876.29
2023-04-10T08:40:18.368Z,99876.99
2023-04-10T08:45:23.207Z,99879.05
2023-04-10T08:50:29.597Z,99875.94
2023-04-10T08:55:34.361Z,99873.73
2023-04-10T09:00:39.066Z,99870.90
2023-04-10T09:05:42.981Z,99871.33
2023-04-10T09:10:47.765Z,99871.91
2023-04-10T09:15:59.956Z,99862.63
2023-04-10T09:21:09.539Z,99859.92
2023-04-10T09:26:27.892Z,99857.02
2023-04-10T09:31:34.816Z,99858.88
2023-04-10T09:36:40.990Z,99858.86
2023-04-10T09:41:52.468Z,99852.66
2023-04-10T09:46:57.271Z,99850.27
2023-04-10T09:52:17.486Z,99852.33
2023-04-10T09:57:24.216Z,99847.13
2023-04-10T10:02:31.230Z,99844.71
2023-04-10T10:07:36.759Z,99844.00
2023-04-10T10:12:48.087Z,99838.89
2023-04-10T10:18:03.984Z,99841.23
2023-04-10T10:23:08.657Z,99839.92
2023-04-10T10:28:14.197Z,99833.89
2023-04-10T10:33:18.599Z,99822.66
2023-04-10T10:38:22.978Z,99824.74
2023-04-10T10:43:38.049Z,99814.23
2023-04-10T10:48:55.360Z,99813.55
2023-04-10T10:54:00.315Z,99808.14
2023-04-10T10:59:05.460Z,99804.73
2023-04-10T11:04:42.026Z,99801.50
2023-04-10T11:09:48.640Z,99796.13
2023-04-10T11:14:59.268Z,99790.63
2023-04-10T11:20:03.609Z,99782.46
2023-04-10T11:25:10.301Z,99774.80
2023-04-10T11:30:34.968Z,99773.60
2023-04-10T11:35:40.132Z,99768.48
2023-04-10T11:41:03.768Z,99762.55
2023-04-10T11:46:08.731Z,99752.33
2023-04-10T11:51:14.542Z,99746.06
2023-04-10T11:56:22.176Z,99737.02
2023-04-10T12:01:26.818Z,99732.79
2023-04-10T12:06:32.209Z,99735.48
2023-04-10T12:11:36.629Z,99727.77
2023-04-10T12:16:42.054Z,99720.55
2023-04-10T12:21:47.604Z,99711.84
2023-04-10T12:26:52.057Z,99706.40
2023-04-10T12:31:57.623Z,99696.66
2023-04-10T12:37:02.412Z,99691.89
2023-04-10T12:42:14.393Z,99676.71
2023-04-10T12:47:19.009Z,99669.09
2023-04-10T12:52:24.775Z,99661.51
2023-04-10T12:57:28.957Z,99650.11
2023-04-10T13:02:33.583Z,99635.39
2023-04-10T13:07:38.813Z,99624.19
2023-04-10T13:12:44.182Z,99619.65
2023-04-10T13:17:48.820Z,99622.59
2023-04-10T13:22:52.615Z,99611.67
2023-04-10T13:27:56.595Z,99602.29
2023-04-10T13:33:00.688Z,99598.09
2023-04-10T13:38:04.491Z,99597.30
2023-04-10T13:43:08.521Z,99592.91
2023-04-10T13:48:12.409Z,99580.02
2023-04-10T13:53:16.296Z,99565.02
2023-04-10T13:58:21.406Z,99550.56
2023-04-10T14:03:25.354Z,99539.30
2023-04-10T14:08:29.514Z,99525.27
2023-04-10T14:13:33.491Z,99533.74
2023-04-10T14:18:38.180Z,99542.73
2023-04-10T14:23:42.937Z,99546.20
2023-04-10T14:28:47.131Z,99545.54
2023-04-10T14:33:51.400Z,99527.52
2023-04-10T14:38:55.656Z,99512.64
2023-04-10T14:43:59.966Z,99509.29
2023-04-10T14:49:07.238Z,99493.38
2023-04-10T14:54:11.372Z,99494.43
2023-04-10T14:59:15.566Z,99537.65
2023-04-10T15:04:19.847Z,99557.64
2023-04-10T15:09:23.888Z,99560.61
2023-04-10T15:14:27.926Z,99554.50
2023-04-10T15:19:32.052Z,99572.40
2023-04-10T15:24:47.085Z,99553.06
2023-04-10T15:29:53.792Z,99530.41
2023-04-10T15:34:57.684Z,99535.83
2023-04-10T15:40:01.832Z,99519.55
2023-04-10T15:45:08.044Z,99509.17
2023-04-10T15:50:12.303Z,99498.36
2023-04-10T15:55:16.826Z,99496.80
2023-04-10T16:00:21.857Z,99493.52
2023-04-10T16:05:25.973Z,99485.40
2023-04-10T16:10:30.733Z,99479.88
2023-04-10T16:15:38.896Z,99479.77
2023-04-10T16:20:43.745Z,99477.32
2023-04-10T16:25:48.194Z,99475.98
2023-04-10T16:30:52.860Z,99477.13
2023-04-10T16:35:58.256Z,99477.34
2023-04-10T16:41:04.221Z,99476.55
2023-04-10T16:46:08.613Z,99468.48
2023-04-10T16:51:19.131Z,99464.46
2023-04-10T16:56:23.684Z,99463.58
2023-04-10T17:01:28.017Z,99474.27
2023-04-10T17:06:32.367Z,99478.57
2023-04-10T17:11:36.507Z,99476.48
2023-04-10T17:16:40.962Z,99479.19
2023-04-10T17:21:45.318Z,99477.87
2023-04-10T17:26:49.371Z,99477.69
2023-04-10T17:31:54.086Z,99485.06
2023-04-10T17:36:58.368Z,99497.18
2023-04-10T17:42:02.689Z,99506.18
2023-04-10T17:47:07.400Z,99524.17
2023-04-10T17:52:11.791Z,99555.22
2023-04-10T17:57:16.210Z,99565.46
2023-04-10T18:02:20.479Z,99573.02
2023-04-10T18:07:24.618Z,99577.29
2023-04-10T18:12:28.749Z,99580.31
2023-04-10T18:17:33.044Z,99589.64
2023-04-10T18:22:37.574Z,99589.89
2023-04-10T18:27:51.415Z,99590.12
2023-04-10T18:32:59.527Z,99580.48
2023-04-10T18:38:03.839Z,99567.67
2023-04-10T18:43:08.047Z,99560.03
2023-04-10T18:48:12.077Z,99544.69
2023-04-10T18:53:16.186Z,99528.43
2023-04-10T18:58:21.353Z,99512.13
2023-04-10T19:03:26.383Z,99504.97
2023-04-10T19:08:30.606Z,99503.52
2023-04-10T19:13:35.501Z,99508.30
2023-04-10T19:18:39.992Z,99512.88
2023-04-10T19:23:44.173Z,99509.99
2023-04-10T19:28:48.350Z,99505.89
2023-04-10T19:33:52.966Z,99505.52
2023-04-10T19:38:57.241Z,99500.08
2023-04-10T19:44:01.733Z,99495.30
2023-04-10T19:49:06.532Z,99491.52
2023-04-10T19:54:10.709Z,99484.30
2023-04-10T19:59:15.067Z,99483.95
2023-04-10T20:04:19.792Z,99474.80
2023-04-10T20:09:26.530Z,99473.77
2023-04-10T20:14:30.556Z,99468.77
2023-04-10T20:19:35.548Z,99464.60
2023-04-10T20:24:39.886Z,99461.25
2023-04-10T20:29:44.036Z,99452.80
2023-04-10T20:34:48.470Z,99441.19
2023-04-10T20:39:52.491Z,99440.65
2023-04-10T20:44:57.688Z,99432.20
2023-04-10T20:54:15.977Z,99420.79
2023-04-10T20:59:23.469Z,99414.63
2023-04-10T21:04:31.210Z,99414.37
2023-04-10T21:09:38.759Z,99409.82
2023-04-10T21:14:46.117Z,99402.59
2023-04-10T21:19:53.518Z,99398.02
2023-04-10T21:25:01.223Z,99394.52
2023-04-10T21:30:10.966Z,99390.90
2023-04-10T21:35:19.198Z,99383.80
2023-04-10T21:40:33.210Z,99389.59
2023-04-10T21:45:41.423Z,99389.02
2023-04-10T21:50:49.249Z,99390.29
2023-04-10T21:55:56.755Z,99386.55
2023-04-10T22:01:04.425Z,99376.41
2023-04-10T22:06:13.035Z,99370.55
2023-04-10T22:11:21.107Z,99364.38
2023-04-10T22:16:28.613Z,99361.74
2023-04-10T22:21:36.605Z,99363.00
2023-04-10T22:26:46.386Z,99368.73
2023-04-10T22:31:54.087Z,99360.95
2023-04-10T22:37:01.484Z,99351.84
2023-04-10T22:42:09.033Z,99358.54
2023-04-10T22:47:16.800Z,99363.61
2023-04-10T22:52:24.547Z,99360.89
2023-04-10T22:57:32.021Z,99359.98
2023-04-10T23:02:39.853Z,99355.52
2023-04-10T23:07:47.438Z,99348.55
2023-04-10T23:12:54.839Z,99341.86
2023-04-10T23:18:03.796Z,99335.48
2023-04-10T23:23:11.516Z,99325.34
2023-04-10T23:28:19.519Z,99311.35
2023-04-10T23:33:27.930Z,99300.20
2023-04-10T23:38:35.494Z,99284.64
2023-04-10T23:43:43.231Z,99272.64
2023-04-10T23:48:50.914Z,99257.48
2023-04-10T23:53:58.501Z,99249.06
2023-04-10T23:59:06.601Z,99243.77
